sensor_id;sensor_type;location;lat;lon;timestamp;pressure;altitude;pressure_sealevel;temperature;humidity
63946;BME280;50122;56.330;43.838;2023-05-09T07:12:12;102315.31;;;9.06;35.83
63946;BME280;50122;56.330;43.838;2023-05-09T07:14:39;102309.03;;;9.23;34.69
63946;BME280;50122;56.330;43.838;2023-05-09T07:17:07;102311.50;;;9.53;35.31
63946;BME280;50122;56.330;43.838;2023-05-09T07:19:47;102304.19;;;9.91;33.81
63946;BME280;50122;56.330;43.838;2023-05-09T07:22:14;102297.75;;;10.20;33.12
63946;BME280;50122;56.330;43.838;2023-05-09T07:24:41;102296.69;;;10.38;32.74
63946;BME280;50122;56.330;43.838;2023-05-09T07:27:09;102292.97;;;10.56;32.35
63946;BME280;50122;56.330;43.838;2023-05-09T07:29:37;102301.75;;;10.59;32.20
63946;BME280;50122;56.330;43.838;2023-05-09T07:32:04;102293.06;;;10.48;33.34
63946;BME280;50122;56.330;43.838;2023-05-09T07:34:30;102297.44;;;10.51;31.95
63946;BME280;50122;56.330;43.838;2023-05-09T07:36:57;102290.38;;;10.51;31.64
63946;BME280;50122;56.330;43.838;2023-05-09T07:39:24;102287.50;;;10.70;32.53
63946;BME280;50122;56.330;43.838;2023-05-09T07:41:51;102281.88;;;10.99;32.27
63946;BME280;50122;56.330;43.838;2023-05-09T07:44:18;102273.47;;;11.30;32.12
63946;BME280;50122;56.330;43.838;2023-05-09T07:46:45;102271.34;;;11.52;32.27
63946;BME280;50122;56.330;43.838;2023-05-09T07:49:11;102273.63;;;11.75;31.10
63946;BME280;50122;56.330;43.838;2023-05-09T07:51:38;102267.06;;;11.99;30.70
63946;BME280;50122;56.330;43.838;2023-05-09T07:54:04;102262.91;;;12.33;30.50
63946;BME280;50122;56.330;43.838;2023-05-09T07:56:31;102272.59;;;12.78;30.79
63946;BME280;50122;56.330;43.838;2023-05-09T07:58:58;102265.59;;;13.16;30.97
63946;BME280;50122;56.330;43.838;2023-05-09T08:01:24;102248.00;;;13.49;30.16
63946;BME280;50122;56.330;43.838;2023-05-09T08:03:51;102268.69;;;13.72;28.71
63946;BME280;50122;56.330;43.838;2023-05-09T08:06:19;102255.03;;;13.52;27.62
63946;BME280;50122;56.330;43.838;2023-05-09T08:08:45;102259.06;;;13.29;28.78
63946;BME280;50122;56.330;43.838;2023-05-09T08:11:13;102256.06;;;13.07;28.82
63946;BME280;50122;56.330;43.838;2023-05-09T08:13:40;102253.31;;;12.71;28.27
63946;BME280;50122;56.330;43.838;2023-05-09T08:16:07;102254.00;;;12.37;29.18
63946;BME280;50122;56.330;43.838;2023-05-09T08:18:33;102253.63;;;12.10;30.33
63946;BME280;50122;56.330;43.838;2023-05-09T08:21:01;102240.69;;;11.92;31.18
63946;BME280;50122;56.330;43.838;2023-05-09T08:23:28;102241.75;;;11.80;29.53
63946;BME280;50122;56.330;43.838;2023-05-09T08:25:55;102238.78;;;12.00;30.17
63946;BME280;50122;56.330;43.838;2023-05-09T08:28:23;102234.56;;;12.37;29.13
63946;BME280;50122;56.330;43.838;2023-05-09T08:30:50;102234.03;;;12.63;28.59
63946;BME280;50122;56.330;43.838;2023-05-09T08:33:17;102230.19;;;12.76;27.86
63946;BME280;50122;56.330;43.838;2023-05-09T08:35:44;102219.44;;;12.82;27.75
63946;BME280;50122;56.330;43.838;2023-05-09T08:38:15;102217.59;;;12.86;28.45
63946;BME280;50122;56.330;43.838;2023-05-09T08:40:42;102215.31;;;13.08;28.56
63946;BME280;50122;56.330;43.838;2023-05-09T08:43:10;102214.63;;;13.39;28.38
63946;BME280;50122;56.330;43.838;2023-05-09T08:45:43;102208.50;;;13.70;27.62
63946;BME280;50122;56.330;43.838;2023-05-09T08:48:16;102214.72;;;13.69;27.49
63946;BME280;50122;56.330;43.838;2023-05-09T08:50:43;102202.22;;;13.74;27.82
63946;BME280;50122;56.330;43.838;2023-05-09T08:53:10;102189.56;;;13.84;28.10
63946;BME280;50122;56.330;43.838;2023-05-09T08:55:38;102191.94;;;13.93;27.48
63946;BME280;50122;56.330;43.838;2023-05-09T08:58:05;102190.72;;;14.05;27.49
63946;BME280;50122;56.330;43.838;2023-05-09T09:00:32;102184.66;;;14.31;27.04
63946;BME280;50122;56.330;43.838;2023-05-09T09:03:01;102181.03;;;14.65;27.01
63946;BME280;50122;56.330;43.838;2023-05-09T09:05:30;102182.41;;;15.34;26.59
63946;BME280;50122;56.330;43.838;2023-05-09T09:08:08;102180.13;;;16.00;25.58
63946;BME280;50122;56.330;43.838;2023-05-09T09:10:39;102168.97;;;17.69;22.91
63946;BME280;50122;56.330;43.838;2023-05-09T09:13:09;102167.91;;;18.52;21.26
63946;BME280;50122;56.330;43.838;2023-05-09T09:15:39;102169.84;;;19.58;20.36
63946;BME280;50122;56.330;43.838;2023-05-09T09:18:08;102161.63;;;18.34;21.27
63946;BME280;50122;56.330;43.838;2023-05-09T09:20:49;102184.47;;;16.97;22.18
63946;BME280;50122;56.330;43.838;2023-05-09T09:23:19;102171.16;;;16.03;23.11
63946;BME280;50122;56.330;43.838;2023-05-09T09:26:00;102166.06;;;15.18;24.09
63946;BME280;50122;56.330;43.838;2023-05-09T09:28:27;102163.81;;;14.77;24.29
63946;BME280;50122;56.330;43.838;2023-05-09T09:30:54;102156.22;;;14.65;25.45
63946;BME280;50122;56.330;43.838;2023-05-09T09:33:23;102150.50;;;14.77;25.29
63946;BME280;50122;56.330;43.838;2023-05-09T09:35:51;102161.91;;;15.36;24.42
63946;BME280;50122;56.330;43.838;2023-05-09T09:38:19;102148.22;;;18.72;21.55
63946;BME280;50122;56.330;43.838;2023-05-09T09:40:52;102141.91;;;21.70;19.99
63946;BME280;50122;56.330;43.838;2023-05-09T09:43:30;102139.06;;;24.04;17.00
63946;BME280;50122;56.330;43.838;2023-05-09T09:46:01;102133.41;;;25.30;16.74
63946;BME280;50122;56.330;43.838;2023-05-09T09:48:35;102136.47;;;24.66;15.78
63946;BME280;50122;56.330;43.838;2023-05-09T09:51:08;102129.34;;;26.39;15.42
63946;BME280;50122;56.330;43.838;2023-05-09T09:53:40;102123.78;;;26.52;14.96
63946;BME280;50122;56.330;43.838;2023-05-09T09:56:07;102139.31;;;23.88;17.21
63946;BME280;50122;56.330;43.838;2023-05-09T09:58:34;102137.00;;;24.58;16.57
63946;BME280;50122;56.330;43.838;2023-05-09T10:01:11;102120.72;;;26.89;15.67
63946;BME280;50122;56.330;43.838;2023-05-09T10:03:45;102135.25;;;25.99;14.86
63946;BME280;50122;56.330;43.838;2023-05-09T10:06:15;102129.22;;;24.16;16.91
63946;BME280;50122;56.330;43.838;2023-05-09T10:08:44;102142.06;;;24.25;17.35
63946;BME280;50122;56.330;43.838;2023-05-09T10:11:14;102119.00;;;26.88;14.08
63946;BME280;50122;56.330;43.838;2023-05-09T10:13:42;102122.09;;;27.89;13.31
63946;BME280;50122;56.330;43.838;2023-05-09T10:16:11;102116.63;;;28.80;12.78
63946;BME280;50122;56.330;43.838;2023-05-09T10:18:41;102118.16;;;29.51;12.42
63946;BME280;50122;56.330;43.838;2023-05-09T10:21:10;102111.44;;;30.66;11.77
63946;BME280;50122;56.330;43.838;2023-05-09T10:23:45;102113.16;;;31.04;11.58
63946;BME280;50122;56.330;43.838;2023-05-09T10:26:22;102119.88;;;27.10;12.45
63946;BME280;50122;56.330;43.838;2023-05-09T10:28:56;102109.16;;;25.98;14.14
63946;BME280;50122;56.330;43.838;2023-05-09T10:31:27;102103.47;;;27.84;12.94
63946;BME280;50122;56.330;43.838;2023-05-09T10:33:55;102101.75;;;29.71;11.35
63946;BME280;50122;56.330;43.838;2023-05-09T10:36:22;102097.59;;;30.32;11.02
63946;BME280;50122;56.330;43.838;2023-05-09T10:38:53;102103.16;;;29.27;10.91
63946;BME280;50122;56.330;43.838;2023-05-09T10:41:21;102092.69;;;27.63;12.67
63946;BME280;50122;56.330;43.838;2023-05-09T10:43:48;102089.44;;;26.18;14.37
63946;BME280;50122;56.330;43.838;2023-05-09T10:46:15;102099.28;;;24.19;14.88
63946;BME280;50122;56.330;43.838;2023-05-09T10:48:42;102092.97;;;22.63;17.01
63946;BME280;50122;56.330;43.838;2023-05-09T10:51:10;102098.22;;;21.06;18.67
63946;BME280;50122;56.330;43.838;2023-05-09T10:53:45;102103.09;;;20.03;19.42
63946;BME280;50122;56.330;43.838;2023-05-09T10:58:55;102099.59;;;18.99;20.27
63946;BME280;50122;56.330;43.838;2023-05-09T11:01:30;102084.41;;;23.23;17.16
63946;BME280;50122;56.330;43.838;2023-05-09T11:04:07;102075.44;;;27.43;14.02
63946;BME280;50122;56.330;43.838;2023-05-09T11:09:34;102065.75;;;33.00;11.39
63946;BME280;50122;56.330;43.838;2023-05-09T11:14:42;102057.16;;;33.92;9.29
63946;BME280;50122;56.330;43.838;2023-05-09T11:17:28;102054.06;;;29.57;11.31
63946;BME280;50122;56.330;43.838;2023-05-09T11:20:00;102062.50;;;25.94;12.88
63946;BME280;50122;56.330;43.838;2023-05-09T11:22:30;102064.47;;;23.52;14.65
63946;BME280;50122;56.330;43.838;2023-05-09T11:25:05;102045.75;;;26.12;14.67
63946;BME280;50122;56.330;43.838;2023-05-09T11:27:40;102040.34;;;30.68;11.85
63946;BME280;50122;56.330;43.838;2023-05-09T11:30:10;102033.00;;;33.88;10.67
63946;BME280;50122;56.330;43.838;2023-05-09T11:32:56;102036.50;;;34.36;10.12
63946;BME280;50122;56.330;43.838;2023-05-09T11:35:24;102036.28;;;31.77;10.81
63946;BME280;50122;56.330;43.838;2023-05-09T11:40:27;102029.97;;;30.72;11.47
63946;BME280;50122;56.330;43.838;2023-05-09T11:42:57;102031.09;;;29.12;11.88
63946;BME280;50122;56.330;43.838;2023-05-09T11:45:26;102032.34;;;29.65;12.44
63946;BME280;50122;56.330;43.838;2023-05-09T11:47:54;102015.63;;;32.50;11.20
63946;BME280;50122;56.330;43.838;2023-05-09T11:50:23;102019.06;;;32.85;10.91
63946;BME280;50122;56.330;43.838;2023-05-09T11:52:50;102008.16;;;31.24;10.84
63946;BME280;50122;56.330;43.838;2023-05-09T11:55:18;102012.44;;;31.96;11.15
63946;BME280;50122;56.330;43.838;2023-05-09T11:57:51;102013.88;;;32.25;11.26
63946;BME280;50122;56.330;43.838;2023-05-09T12:00:22;102015.78;;;32.32;10.07
63946;BME280;50122;56.330;43.838;2023-05-09T12:02:50;102007.88;;;31.27;11.20
63946;BME280;50122;56.330;43.838;2023-05-09T12:05:19;102016.22;;;28.18;12.42
63946;BME280;50122;56.330;43.838;2023-05-09T12:07:46;102012.63;;;27.15;14.90
63946;BME280;50122;56.330;43.838;2023-05-09T12:10:14;102005.22;;;29.45;13.04
63946;BME280;50122;56.330;43.838;2023-05-09T12:12:45;102002.66;;;30.90;12.77
63946;BME280;50122;56.330;43.838;2023-05-09T12:15:13;101990.16;;;32.42;10.78
63946;BME280;50122;56.330;43.838;2023-05-09T12:17:41;101991.91;;;31.92;10.66
63946;BME280;50122;56.330;43.838;2023-05-09T12:20:08;101994.25;;;29.55;12.23
63946;BME280;50122;56.330;43.838;2023-05-09T12:22:37;101997.88;;;27.29;13.81
63946;BME280;50122;56.330;43.838;2023-05-09T12:25:09;101996.59;;;29.03;13.33
63946;BME280;50122;56.330;43.838;2023-05-09T12:27:38;101985.59;;;31.91;11.08
63946;BME280;50122;56.330;43.838;2023-05-09T12:30:09;101982.06;;;31.22;10.97
63946;BME280;50122;56.330;43.838;2023-05-09T12:32:39;101976.69;;;29.02;12.65
63946;BME280;50122;56.330;43.838;2023-05-09T12:35:09;101991.69;;;26.75;13.42
63946;BME280;50122;56.330;43.838;2023-05-09T12:37:36;101985.59;;;25.52;15.08
63946;BME280;50122;56.330;43.838;2023-05-09T12:40:10;101981.81;;;24.85;15.57
63946;BME280;50122;56.330;43.838;2023-05-09T12:42:44;101981.25;;;26.38;13.74
63946;BME280;50122;56.330;43.838;2023-05-09T12:45:12;101976.63;;;27.75;14.36
63946;BME280;50122;56.330;43.838;2023-05-09T12:47:40;101981.72;;;27.49;13.68
63946;BME280;50122;56.330;43.838;2023-05-09T12:50:09;101985.91;;;25.92;13.48
63946;BME280;50122;56.330;43.838;2023-05-09T12:52:41;101970.56;;;24.42;13.71
63946;BME280;50122;56.330;43.838;2023-05-09T12:55:27;101980.53;;;23.18;15.10
63946;BME280;50122;56.330;43.838;2023-05-09T12:57:58;101973.53;;;22.49;16.44
63946;BME280;50122;56.330;43.838;2023-05-09T13:00:25;101962.94;;;22.19;15.95
63946;BME280;50122;56.330;43.838;2023-05-09T13:02:52;101955.41;;;21.55;16.32
63946;BME280;50122;56.330;43.838;2023-05-09T13:05:21;101955.75;;;21.49;17.67
63946;BME280;50122;56.330;43.838;2023-05-09T13:07:50;101960.78;;;21.41;17.05
63946;BME280;50122;56.330;43.838;2023-05-09T13:10:21;101955.00;;;21.04;16.96
63946;BME280;50122;56.330;43.838;2023-05-09T13:12:50;101958.78;;;20.55;17.25
63946;BME280;50122;56.330;43.838;2023-05-09T13:15:20;101952.69;;;19.90;18.06
63946;BME280;50122;56.330;43.838;2023-05-09T13:17:49;101953.69;;;19.22;18.45
63946;BME280;50122;56.330;43.838;2023-05-09T13:20:19;101948.94;;;18.94;19.14
63946;BME280;50122;56.330;43.838;2023-05-09T13:22:45;101951.03;;;18.70;19.71
63946;BME280;50122;56.330;43.838;2023-05-09T13:25:12;101948.75;;;18.27;19.75
63946;BME280;50122;56.330;43.838;2023-05-09T13:27:39;101949.56;;;18.10;19.78
63946;BME280;50122;56.330;43.838;2023-05-09T13:30:06;101945.03;;;17.93;19.79
63946;BME280;50122;56.330;43.838;2023-05-09T13:32:34;101937.53;;;17.82;19.91
63946;BME280;50122;56.330;43.838;2023-05-09T13:35:02;101938.06;;;17.89;19.44
63946;BME280;50122;56.330;43.838;2023-05-09T13:37:32;101944.38;;;18.07;19.88
63946;BME280;50122;56.330;43.838;2023-05-09T13:39:59;101933.06;;;19.07;19.33
63946;BME280;50122;56.330;43.838;2023-05-09T13:42:26;101932.84;;;20.70;18.13
63946;BME280;50122;56.330;43.838;2023-05-09T13:44:53;101917.91;;;22.21;16.54
63946;BME280;50122;56.330;43.838;2023-05-09T13:47:20;101923.75;;;23.32;16.56
63946;BME280;50122;56.330;43.838;2023-05-09T13:49:47;101916.75;;;24.39;15.00
63946;BME280;50122;56.330;43.838;2023-05-09T13:52:14;101920.03;;;23.83;14.63
63946;BME280;50122;56.330;43.838;2023-05-09T13:54:41;101923.28;;;22.21;15.77
63946;BME280;50122;56.330;43.838;2023-05-09T13:57:10;101925.13;;;20.79;17.20
63946;BME280;50122;56.330;43.838;2023-05-09T13:59:37;101929.81;;;20.15;17.46
63946;BME280;50122;56.330;43.838;2023-05-09T14:02:06;101921.09;;;20.56;18.10
63946;BME280;50122;56.330;43.838;2023-05-09T14:04:33;101910.75;;;21.24;18.22
63946;BME280;50122;56.330;43.838;2023-05-09T14:07:00;101915.41;;;21.63;17.51
63946;BME280;50122;56.330;43.838;2023-05-09T14:09:27;101909.94;;;23.24;16.51
63946;BME280;50122;56.330;43.838;2023-05-09T14:11:56;101898.84;;;24.38;15.31
63946;BME280;50122;56.330;43.838;2023-05-09T14:14:23;101906.09;;;26.08;14.05
63946;BME280;50122;56.330;43.838;2023-05-09T14:16:51;101900.09;;;25.49;13.30
63946;BME280;50122;56.330;43.838;2023-05-09T14:19:19;101895.44;;;25.40;13.95
63946;BME280;50122;56.330;43.838;2023-05-09T14:21:45;101894.19;;;24.40;14.09
63946;BME280;50122;56.330;43.838;2023-05-09T14:24:12;101900.25;;;23.09;14.98
63946;BME280;50122;56.330;43.838;2023-05-09T14:26:42;101905.34;;;21.94;16.04
63946;BME280;50122;56.330;43.838;2023-05-09T14:29:09;101894.16;;;20.58;17.43
63946;BME280;50122;56.330;43.838;2023-05-09T14:31:36;101898.66;;;19.65;18.17
63946;BME280;50122;56.330;43.838;2023-05-09T14:34:03;101906.31;;;18.89;18.80
63946;BME280;50122;56.330;43.838;2023-05-09T14:36:30;101905.78;;;18.48;19.34
63946;BME280;50122;56.330;43.838;2023-05-09T14:39:00;101901.31;;;17.94;20.22
63946;BME280;50122;56.330;43.838;2023-05-09T14:41:28;101902.47;;;17.50;21.25
63946;BME280;50122;56.330;43.838;2023-05-09T14:43:54;101893.06;;;17.42;20.87
63946;BME280;50122;56.330;43.838;2023-05-09T14:46:21;101894.81;;;17.24;21.04
63946;BME280;50122;56.330;43.838;2023-05-09T14:48:50;101888.50;;;17.06;21.87
63946;BME280;50122;56.330;43.838;2023-05-09T14:51:17;101888.94;;;16.76;23.42
63946;BME280;50122;56.330;43.838;2023-05-09T14:53:44;101888.97;;;16.54;24.20
63946;BME280;50122;56.330;43.838;2023-05-09T14:56:12;101885.81;;;16.45;24.02
63946;BME280;50122;56.330;43.838;2023-05-09T14:58:39;101882.66;;;16.36;24.21
63946;BME280;50122;56.330;43.838;2023-05-09T15:01:05;101888.19;;;16.31;23.54
